createdAt,value
2018-02-11T00:00:49.776Z,0.5
2018-02-11T00:01:50.425Z,0.44
2018-02-11T00:02:52.017Z,0.44
2018-02-11T00:03:54.439Z,0.53
2018-02-11T00:04:55.188Z,0.45
2018-02-11T00:05:55.777Z,0.44
2018-02-11T00:06:56.039Z,0.44
2018-02-11T00:07:57.342Z,0.47
2018-02-11T00:08:57.591Z,0.5
2018-02-11T00:09:59.321Z,0.53
2018-02-11T00:11:01.690Z,0.47
2018-02-11T00:12:00.768Z,0.38
2018-02-11T00:13:01.808Z,0.15
2018-02-11T00:14:03.988Z,0.19
2018-02-11T00:15:07.105Z,0.15
2018-02-11T00:16:05.269Z,0.23
2018-02-11T00:17:07.038Z,0.31
2018-02-11T00:18:07.340Z,0.26
2018-02-11T00:19:07.784Z,0.29
2018-02-11T00:20:08.976Z,0.15
2018-02-11T00:21:09.901Z,0.21
2018-02-11T00:22:11.478Z,0.29
2018-02-11T00:23:11.998Z,0.25
2018-02-11T00:24:15.106Z,0.15
2018-02-11T00:25:15.136Z,0.19
2018-02-11T00:26:15.859Z,0.15
2018-02-11T00:27:16.685Z,0.16
2018-02-11T00:28:16.638Z,0.19
2018-02-11T00:29:19.246Z,0.16
2018-02-11T00:30:19.748Z,0.34
2018-02-11T00:31:21.727Z,0.21
2018-02-11T00:32:20.283Z,0.35
2018-02-11T00:33:21.813Z,0.21
2018-02-11T00:34:23.748Z,0.26
2018-02-11T00:35:24.370Z,0.31
2018-02-11T00:36:25.248Z,0.28
2018-02-11T00:37:25.988Z,0.35
2018-02-11T00:38:27.093Z,0.31
2018-02-11T00:39:28.638Z,0.26
2018-02-11T00:40:29.989Z,0.22
2018-02-11T00:41:30.010Z,0.31
2018-02-11T00:42:30.686Z,0.29
2018-02-11T00:43:31.651Z,0.26
2018-02-11T00:44:32.736Z,0.31
2018-02-11T00:45:34.596Z,0.31
2018-02-11T00:46:35.326Z,0.21
2018-02-11T00:47:35.913Z,0.31
2018-02-11T00:48:37.074Z,0.16
2018-02-11T00:49:37.357Z,0.21
2018-02-11T00:50:39.046Z,0.21
2018-02-11T00:51:39.893Z,0.26
2018-02-11T00:52:42.553Z,0.37
2018-02-11T00:53:42.769Z,0.35
2018-02-11T00:54:43.613Z,0.37
2018-02-11T00:55:43.960Z,0.35
2018-02-11T00:56:44.964Z,0.26
2018-02-11T00:57:45.614Z,0.31
2018-02-11T00:58:47.375Z,0.26
2018-02-11T00:59:48.445Z,0.35
2018-02-11T01:00:49.700Z,0.31
2018-02-11T01:01:50.265Z,0.26
2018-02-11T01:02:50.194Z,0.31
2018-02-11T01:03:52.618Z,0.31
2018-02-11T01:04:52.193Z,0.31
2018-02-11T01:05:54.952Z,0.34
2018-02-11T01:06:54.305Z,0.26
2018-02-11T01:07:56.080Z,0.41
2018-02-11T01:08:57.644Z,0.43
2018-02-11T01:09:57.868Z,0.41
2018-02-11T01:10:59.178Z,0.43
2018-02-11T01:12:00.329Z,0.41
2018-02-11T01:13:00.591Z,0.47
2018-02-11T01:14:02.824Z,0.38
2018-02-11T01:15:03.897Z,0.37
2018-02-11T01:16:06.082Z,0.26
2018-02-11T01:17:04.674Z,0.34
2018-02-11T01:18:05.238Z,0.32
2018-02-11T01:19:06.997Z,0.32
2018-02-11T01:20:07.953Z,0.35
2018-02-11T01:21:09.186Z,0.37
2018-02-11T01:22:09.522Z,0.32
2018-02-11T01:23:11.321Z,0.34
2018-02-11T01:24:12.080Z,0.31
2018-02-11T01:25:13.808Z,0.34
2018-02-11T01:26:14.632Z,0.32
2018-02-11T01:27:15.568Z,0.28
2018-02-11T01:28:16.318Z,0.35
2018-02-11T01:29:16.454Z,0.34
2018-02-11T01:30:18.473Z,0.34
2018-02-11T01:31:19.099Z,0.41
2018-02-11T01:32:20.155Z,0.41
2018-02-11T01:33:21.389Z,0.38
2018-02-11T01:34:21.857Z,0.34
2018-02-11T01:35:23.336Z,0.41
2018-02-11T01:36:25.352Z,0.34
2018-02-11T01:37:24.104Z,0.34
2018-02-11T01:38:26.819Z,0.25
2018-02-11T01:39:26.376Z,0.31
2018-02-11T01:40:27.490Z,0.29
2018-02-11T01:41:28.771Z,0.29
2018-02-11T01:42:30.645Z,0.31
2018-02-11T01:43:31.936Z,0.31
2018-02-11T01:44:32.954Z,0.34
2018-02-11T01:45:32.992Z,0.31
2018-02-11T01:46:34.610Z,0.34
2018-02-11T01:47:34.740Z,0.31
2018-02-11T01:48:35.566Z,0.21
2018-02-11T01:49:37.319Z,0.26
2018-02-11T01:50:39.526Z,0.26
2018-02-11T01:51:39.023Z,0.34
2018-02-11T01:52:39.263Z,0.26
2018-02-11T01:53:40.251Z,0.31
2018-02-11T01:54:42.577Z,0.31
2018-02-11T01:55:42.478Z,0.31
2018-02-11T01:56:43.701Z,0.26
2018-02-11T01:57:45.653Z,0.31
2018-02-11T01:58:45.925Z,0.31
2018-02-11T01:59:47.220Z,0.31
2018-02-11T02:00:48.538Z,0.31
2018-02-11T02:01:49.399Z,0.26
2018-02-11T02:02:50.148Z,0.31
2018-02-11T02:03:51.805Z,0.22
2018-02-11T02:04:51.551Z,0.28
2018-02-11T02:05:53.271Z,0.35
2018-02-11T02:06:54.442Z,0.37
2018-02-11T02:07:55.235Z,0.37
2018-02-11T02:08:56.521Z,0.26
2018-02-11T02:09:57.527Z,0.26
2018-02-11T02:10:59.573Z,0.26
2018-02-11T02:11:59.825Z,0.35
2018-02-11T02:13:01.803Z,0.26
2018-02-11T02:14:01.604Z,0.35
2018-02-11T02:15:02.462Z,0.31
2018-02-11T02:16:02.903Z,0.22
2018-02-11T02:17:06.056Z,0.31
2018-02-11T02:18:04.894Z,0.21
2018-02-11T02:19:05.526Z,0.28
2018-02-11T02:20:06.393Z,0.26
2018-02-11T02:21:07.742Z,0.31
2018-02-11T02:22:08.724Z,0.34
2018-02-11T02:23:10.435Z,0.26
2018-02-11T02:24:11.737Z,0.31
2018-02-11T02:25:12.106Z,0.34
2018-02-11T02:26:13.817Z,0.34
2018-02-11T02:27:14.865Z,0.22
2018-02-11T02:28:15.568Z,0.32
2018-02-11T02:29:16.389Z,0.35
2018-02-11T02:30:16.819Z,0.34
2018-02-11T02:31:18.035Z,0.21
2018-02-11T02:32:19.770Z,0.31
2018-02-11T02:33:20.267Z,0.34
2018-02-11T02:34:20.347Z,0.34
2018-02-11T02:35:21.513Z,0.31
2018-02-11T02:36:23.130Z,0.35
2018-02-11T02:37:24.137Z,0.28
2018-02-11T02:38:25.512Z,0.34
2018-02-11T02:39:26.360Z,0.26
2018-02-11T02:40:26.729Z,0.31
2018-02-11T02:41:28.775Z,0.28
2018-02-11T02:42:28.606Z,0.34
2018-02-11T02:43:30.485Z,0.35
2018-02-11T02:44:30.119Z,0.26
2018-02-11T02:45:32.436Z,0.34
2018-02-11T02:46:32.224Z,0.34
2018-02-11T02:47:33.879Z,0.28
2018-02-11T02:48:36.147Z,0.34
2018-02-11T02:49:36.488Z,0.38
2018-02-11T02:50:36.852Z,0.28
2018-02-11T02:51:38.428Z,0.35
2018-02-11T02:52:39.521Z,0.34
2018-02-11T02:53:39.478Z,0.34
2018-02-11T02:54:40.526Z,0.34
2018-02-11T02:55:41.526Z,0.31
2018-02-11T02:56:43.958Z,0.34
2018-02-11T02:57:45.690Z,0.34
2018-02-11T02:58:45.033Z,0.26
2018-02-11T02:59:46.049Z,0.29
2018-02-11T03:00:46.999Z,0.35
2018-02-11T03:01:48.792Z,0.34
2018-02-11T03:02:49.274Z,0.29
2018-02-11T03:03:49.860Z,0.23
2018-02-11T03:04:50.678Z,0.26
2018-02-11T03:05:52.419Z,0.31
2018-02-11T03:06:54.005Z,0.31
2018-02-11T03:07:53.765Z,0.26
2018-02-11T03:08:54.496Z,0.31
2018-02-11T03:09:55.455Z,0.28
2018-02-11T03:10:57.158Z,0.26
2018-02-11T03:11:58.116Z,0.31
2018-02-11T03:13:00.716Z,0.31
2018-02-11T03:14:00.065Z,0.26
2018-02-11T03:15:01.818Z,0.31
2018-02-11T03:16:02.752Z,0.29
2018-02-11T03:17:03.834Z,0.31
2018-02-11T03:18:04.484Z,0.22
2018-02-11T03:19:05.226Z,0.34
2018-02-11T03:20:05.735Z,0.29
2018-02-11T03:21:06.833Z,0.21
2018-02-11T03:22:07.770Z,0.25
2018-02-11T03:23:09.439Z,0.15
2018-02-11T03:24:10.145Z,0.29
2018-02-11T03:25:10.778Z,0.25
2018-02-11T03:26:12.467Z,0.31
2018-02-11T03:27:12.464Z,0.25
2018-02-11T03:28:14.386Z,0.29
2018-02-11T03:29:15.817Z,0.21
2018-02-11T03:30:16.126Z,0.29
2018-02-11T03:31:18.499Z,0.31
2018-02-11T03:32:19.416Z,0.29
2018-02-11T03:33:19.627Z,0.21
2018-02-11T03:34:20.076Z,0.23
2018-02-11T03:35:21.413Z,0.29
2018-02-11T03:36:21.649Z,0.16
2018-02-11T03:37:22.738Z,0.26
2018-02-11T03:38:25.139Z,0.31
2018-02-11T03:39:24.462Z,0.26
2018-02-11T03:40:25.942Z,0.29
2018-02-11T03:41:27.104Z,0.31
2018-02-11T03:42:28.132Z,0.31
2018-02-11T03:43:30.093Z,0.29
2018-02-11T03:44:30.724Z,0.23
2018-02-11T03:45:30.941Z,0.31
2018-02-11T03:46:32.700Z,0.21
2018-02-11T03:47:32.956Z,0.21
2018-02-11T03:48:36.111Z,0.29
2018-02-11T03:49:35.445Z,0.23
2018-02-11T03:50:35.796Z,0.31
2018-02-11T03:51:37.365Z,0.21
2018-02-11T03:52:37.673Z,0.21
2018-02-11T03:53:39.294Z,0.28
2018-02-11T03:54:39.907Z,0.21
2018-02-11T03:55:40.205Z,0.26
2018-02-11T03:56:41.409Z,0.26
2018-02-11T03:57:43.418Z,0.26
2018-02-11T03:58:44.360Z,0.26
2018-02-11T03:59:45.508Z,0.28
2018-02-11T04:00:45.830Z,0.31
2018-02-11T04:01:47.524Z,0.31
2018-02-11T04:02:48.072Z,0.22
2018-02-11T04:03:49.608Z,0.31
2018-02-11T04:04:50.215Z,0.21
2018-02-11T04:05:51.200Z,0.26
2018-02-11T04:06:51.439Z,0.21
2018-02-11T04:07:54.002Z,0.23
2018-02-11T04:08:54.534Z,0.26
2018-02-11T04:09:55.176Z,0.29
2018-02-11T04:10:56.813Z,0.23
2018-02-11T04:11:58.491Z,0.21
2018-02-11T04:12:58.790Z,0.25
2018-02-11T04:13:59.201Z,0.28
2018-02-11T04:14:59.867Z,0.23
2018-02-11T04:16:00.702Z,0.37
2018-02-11T04:17:02.395Z,0.41
2018-02-11T04:18:04.408Z,0.34
2018-02-11T04:19:03.728Z,0.29
2018-02-11T04:20:04.596Z,0.28
2018-02-11T04:21:06.356Z,0.26
2018-02-11T04:22:32.976Z,0.26
2018-02-11T04:23:08.086Z,0.29
2018-02-11T04:24:10.146Z,0.34
2018-02-11T04:25:10.750Z,0.29
2018-02-11T04:26:11.715Z,0.37
2018-02-11T04:27:12.251Z,0.31
2018-02-11T04:28:12.937Z,0.22
2018-02-11T04:29:15.987Z,0.26
2018-02-11T04:30:14.777Z,0.26
2018-02-11T04:31:15.949Z,0.31
2018-02-11T04:32:16.821Z,0.37
2018-02-11T04:33:18.200Z,0.34
2018-02-11T04:34:19.360Z,0.35
2018-02-11T04:35:19.990Z,0.35
2018-02-11T04:36:20.522Z,0.26
2018-02-11T04:37:22.592Z,0.26
2018-02-11T04:38:22.909Z,0.26
2018-02-11T04:39:24.434Z,0.43
2018-02-11T04:40:25.114Z,0.43
2018-02-11T04:41:27.568Z,0.32
2018-02-11T04:42:27.028Z,0.31
2018-02-11T04:43:27.605Z,0.34
2018-02-11T04:44:29.682Z,0.28
2018-02-11T04:45:30.246Z,0.31
2018-02-11T04:46:31.009Z,0.25
2018-02-11T04:47:31.716Z,0.29
2018-02-11T04:48:32.236Z,0.34
2018-02-11T04:49:34.849Z,0.26
2018-02-11T04:50:36.314Z,0.26
2018-02-11T04:51:35.994Z,0.26
2018-02-11T04:52:36.274Z,0.32
2018-02-11T04:53:39.379Z,0.41
2018-02-11T04:54:39.276Z,0.35
2018-02-11T04:55:39.934Z,0.43
2018-02-11T04:56:41.258Z,0.43
2018-02-11T04:57:42.849Z,0.38
2018-02-11T04:58:42.800Z,0.38
2018-02-11T04:59:44.900Z,0.38
2018-02-11T05:00:46.891Z,0.43
2018-02-11T05:01:46.240Z,0.32
2018-02-11T05:02:46.824Z,0.21
2018-02-11T05:03:47.412Z,0.31
2018-02-11T05:04:49.855Z,0.34
2018-02-11T05:05:49.734Z,0.32
2018-02-11T05:06:50.924Z,0.47
2018-02-11T05:07:51.748Z,0.43
2018-02-11T05:08:53.730Z,0.4
2018-02-11T05:09:54.359Z,0.41
2018-02-11T05:10:55.518Z,0.47
2018-02-11T05:11:56.761Z,0.48
2018-02-11T05:12:58.164Z,0.38
2018-02-11T05:13:57.666Z,0.38
2018-02-11T05:15:00.355Z,0.47
2018-02-11T05:16:00.086Z,0.35
2018-02-11T05:17:00.568Z,0.47
2018-02-11T05:18:03.945Z,0.4
2018-02-11T05:19:02.705Z,0.43
2018-02-11T05:20:03.578Z,0.41
2018-02-11T05:21:04.280Z,0.4
2018-02-11T05:22:05.569Z,0.4
2018-02-11T05:23:07.590Z,0.41
2018-02-11T05:24:07.920Z,0.44
2018-02-11T05:25:09.922Z,0.4
2018-02-11T05:26:11.181Z,0.45
2018-02-11T05:27:11.687Z,0.38
2018-02-11T05:28:13.199Z,0.41
2018-02-11T05:29:13.954Z,0.45
2018-02-11T05:30:13.900Z,0.47
2018-02-11T05:31:16.787Z,0.45
2018-02-11T05:32:15.469Z,0.44
2018-02-11T05:33:17.900Z,0.44
2018-02-11T05:34:18.922Z,0.44
2018-02-11T05:35:19.428Z,0.45
2018-02-11T05:36:20.178Z,0.45
2018-02-11T05:37:21.296Z,0.47
2018-02-11T05:38:22.472Z,0.45
2018-02-11T05:39:22.815Z,0.41
2018-02-11T05:40:24.166Z,0.5
2018-02-11T05:41:27.094Z,0.47
2018-02-11T05:42:26.540Z,0.41
2018-02-11T05:43:27.450Z,0.43
2018-02-11T05:44:27.585Z,0.47
2018-02-11T05:45:29.759Z,0.41
2018-02-11T05:46:30.916Z,0.47
2018-02-11T05:48:04.659Z,0.32
2018-02-11T05:48:32.963Z,0.43
2018-02-11T05:49:32.235Z,0.43
2018-02-11T05:50:33.454Z,0.41
2018-02-11T05:51:34.165Z,0.38
2018-02-11T05:52:35.975Z,0.41
2018-02-11T05:53:37.122Z,0.38
2018-02-11T05:54:37.980Z,0.53
2018-02-11T05:55:39.169Z,0.41
2018-02-11T05:56:39.983Z,0.38
2018-02-11T05:57:41.609Z,0.47
2018-02-11T05:58:42.501Z,0.38
2018-02-11T05:59:42.478Z,0.21
2018-02-11T06:00:43.824Z,0.25
2018-02-11T06:01:44.506Z,0.21
2018-02-11T06:02:45.661Z,0.19
2018-02-11T06:03:48.496Z,0.13
2018-02-11T06:04:48.891Z,0.16
2018-02-11T06:05:50.582Z,0.22
2018-02-11T06:06:50.732Z,0.19
2018-02-11T06:07:51.138Z,0.28
2018-02-11T06:08:52.566Z,0.22
2018-02-11T06:09:54.895Z,0.25
2018-02-11T06:10:55.486Z,0.19
2018-02-11T06:11:54.884Z,0.13
2018-02-11T06:12:56.493Z,0.19
2018-02-11T06:13:57.172Z,0.25
2018-02-11T06:14:58.197Z,0.16
2018-02-11T06:16:00.284Z,0.22
2018-02-11T06:17:00.241Z,0.15
2018-02-11T06:18:01.992Z,0.18
2018-02-11T06:19:02.796Z,0.19
2018-02-11T06:20:03.553Z,0.15
2018-02-11T06:21:04.703Z,0.22
2018-02-11T06:22:05.267Z,0.23
2018-02-11T06:23:08.297Z,0.15
2018-02-11T06:24:06.541Z,0.25
2018-02-11T06:25:08.904Z,0.22
2018-02-11T06:26:09.442Z,0.25
2018-02-11T06:27:10.366Z,0.23
2018-02-11T06:28:10.549Z,0.23
2018-02-11T06:29:12.496Z,0.23
2018-02-11T06:30:13.542Z,0.15
2018-02-11T06:31:14.348Z,0.15
2018-02-11T06:32:15.379Z,0.16
2018-02-11T06:33:15.805Z,0.19
2018-02-11T06:34:17.269Z,0.15
2018-02-11T06:35:18.071Z,0.15
2018-02-11T06:36:20.244Z,0.19
2018-02-11T06:37:20.352Z,0.23
2018-02-11T06:38:21.512Z,0.22
2018-02-11T06:39:22.970Z,0.25
2018-02-11T06:40:24.646Z,0.23
2018-02-11T06:41:25.058Z,0.15
2018-02-11T06:42:25.630Z,0.15
2018-02-11T06:43:26.756Z,0.22
2018-02-11T06:44:27.058Z,0.19
2018-02-11T06:45:29.009Z,0.15
2018-02-11T06:46:29.725Z,0.19
2018-02-11T06:47:30.668Z,0.19
2018-02-11T06:48:32.557Z,0.15
2018-02-11T06:49:33.037Z,0.03
2018-02-11T06:50:33.888Z,0.04
2018-02-11T06:51:34.758Z,0.25
2018-02-11T06:52:35.296Z,0.19
2018-02-11T06:53:35.877Z,0.1
2018-02-11T06:54:36.816Z,0.19
2018-02-11T06:55:38.610Z,0.15
2018-02-11T06:56:40.672Z,0.19
2018-02-11T06:57:39.821Z,0.15
2018-02-11T06:58:40.940Z,0.15
2018-02-11T06:59:41.872Z,0.22
2018-02-11T07:00:43.132Z,0.15
2018-02-11T07:01:46.164Z,0.1
2018-02-11T07:02:44.542Z,0.16
2018-02-11T07:03:46.963Z,0.16
2018-02-11T07:04:48.418Z,0.22
2018-02-11T07:05:48.182Z,0.19
2018-02-11T07:06:50.048Z,0.15
2018-02-11T07:07:51.456Z,0.19
2018-02-11T07:08:51.865Z,0.1
2018-02-11T07:09:51.816Z,0.22
2018-02-11T07:10:53.486Z,0.16
2018-02-11T07:11:54.090Z,0.15
2018-02-11T07:12:54.845Z,0.03
2018-02-11T07:13:56.754Z,0.13
2018-02-11T07:14:56.871Z,0.09
2018-02-11T07:15:57.386Z,0.09
2018-02-11T07:16:59.565Z,0.19
2018-02-11T07:18:00.033Z,0.1
2018-02-11T07:19:01.612Z,0.13
2018-02-11T07:20:02.801Z,0.12
2018-02-11T07:21:03.554Z,0.12
2018-02-11T07:22:04.312Z,0.1
2018-02-11T07:23:05.056Z,0.18
2018-02-11T07:24:06.336Z,0.13
2018-02-11T07:25:07.034Z,0.13
2018-02-11T07:26:07.948Z,0.18
2018-02-11T07:27:09.746Z,0.12
2018-02-11T07:28:10.802Z,0.19
2018-02-11T07:29:10.948Z,0.09
2018-02-11T07:30:14.558Z,0.19
2018-02-11T07:31:12.839Z,0.19
2018-02-11T07:32:16.421Z,0.15
2018-02-11T07:33:14.958Z,0.16
2018-02-11T07:34:16.844Z,0.12
2018-02-11T07:35:18.724Z,0.1
2018-02-11T07:36:19.632Z,0.12
2018-02-11T07:37:21.540Z,0.19
2018-02-11T07:38:20.615Z,0.18
2018-02-11T07:39:21.658Z,0.19
2018-02-11T07:40:21.571Z,0.12
2018-02-11T07:41:23.054Z,0.15
2018-02-11T07:42:23.654Z,0.18
2018-02-11T07:43:25.334Z,0.16
2018-02-11T07:44:27.360Z,0.15
2018-02-11T07:45:27.664Z,0.23
2018-02-11T07:46:28.398Z,0.15
2018-02-11T07:47:30.786Z,0.25
2018-02-11T07:48:30.628Z,0.22
2018-02-11T07:49:31.822Z,0.21
2018-02-11T07:50:32.637Z,0.15
2018-02-11T07:51:34.318Z,0.19
2018-02-11T07:52:34.745Z,0.25
2018-02-11T07:53:35.200Z,0.21
2018-02-11T07:54:38.325Z,0.21
2018-02-11T07:55:37.933Z,0.23
2018-02-11T07:56:39.186Z,0.23
2018-02-11T07:57:39.748Z,0.21
2018-02-11T07:58:40.240Z,0.22
2018-02-11T07:59:40.427Z,0.26
2018-02-11T08:00:41.849Z,0.35
2018-02-11T08:01:43.879Z,0.28
2018-02-11T08:02:45.149Z,0.34
2018-02-11T08:03:46.328Z,0.26
2018-02-11T08:04:48.014Z,0.34
2018-02-11T08:05:47.052Z,0.35
2018-02-11T08:06:48.276Z,0.37
2018-02-11T08:07:49.699Z,0.37
2018-02-11T08:08:50.682Z,0.34
2018-02-11T08:09:51.109Z,0.34
2018-02-11T08:10:55.468Z,0.26
2018-02-11T08:11:56.174Z,0.35
2018-02-11T08:12:54.452Z,0.35
2018-02-11T08:13:55.832Z,0.35
2018-02-11T08:14:55.785Z,0.37
2018-02-11T08:15:56.815Z,0.26
2018-02-11T08:16:57.776Z,0.26
2018-02-11T08:18:00.200Z,0.26
2018-02-11T08:19:00.673Z,0.26
2018-02-11T08:20:01.660Z,0.29
2018-02-11T08:21:02.973Z,0.31
2018-02-11T08:22:03.403Z,0.26
2018-02-11T08:23:04.788Z,0.21
2018-02-11T08:24:05.292Z,0.28
2018-02-11T08:25:06.342Z,0.23
2018-02-11T08:26:07.244Z,0.31
2018-02-11T08:27:09.751Z,0.26
2018-02-11T08:28:09.577Z,0.25
2018-02-11T08:29:09.990Z,0.26
2018-02-11T08:30:10.861Z,0.21
2018-02-11T08:31:11.881Z,0.28
2018-02-11T08:32:13.372Z,0.26
2018-02-11T08:33:14.249Z,0.35
2018-02-11T08:34:15.241Z,0.43
2018-02-11T08:35:16.806Z,0.45
2018-02-11T08:36:17.870Z,0.41
2018-02-11T08:37:21.307Z,0.43
2018-02-11T08:38:22.836Z,0.38
2018-02-11T08:39:20.253Z,0.43
2018-02-11T08:40:21.768Z,0.43
2018-02-11T08:41:23.323Z,0.43
2018-02-11T08:42:23.487Z,0.43
2018-02-11T08:43:24.744Z,0.38
2018-02-11T08:44:27.030Z,0.4
2018-02-11T08:45:26.880Z,0.38
2018-02-11T08:46:27.930Z,0.37
2018-02-11T08:47:28.009Z,0.38
2018-02-11T08:48:30.575Z,0.38
2018-02-11T08:50:01.304Z,0.38
2018-02-11T08:50:32.783Z,0.43
2018-02-11T08:51:33.386Z,0.38
2018-02-11T08:52:36.546Z,0.38
2018-02-11T08:53:38.337Z,0.43
2018-02-11T08:54:44.971Z,0.35
2018-02-11T08:55:36.933Z,0.43
2018-02-11T08:56:37.306Z,0.32
2018-02-11T08:57:40.206Z,0.35
2018-02-11T08:58:40.844Z,0.43
2018-02-11T08:59:42.300Z,0.34
2018-02-11T09:00:41.333Z,0.29
2018-02-11T09:01:42.588Z,0.37
2018-02-11T09:02:42.449Z,0.35
2018-02-11T09:03:44.275Z,0.26
2018-02-11T09:04:45.672Z,0.31
2018-02-11T09:05:46.418Z,0.29
2018-02-11T09:06:47.307Z,0.31
2018-02-11T09:07:48.594Z,0.26
2018-02-11T09:08:51.133Z,0.29
2018-02-11T09:09:50.150Z,0.29
2018-02-11T09:10:52.407Z,0.38
2018-02-11T09:11:56.513Z,0.29
2018-02-11T09:12:53.392Z,0.16
2018-02-11T09:13:56.330Z,0.22
2018-02-11T09:14:56.000Z,0.29
2018-02-11T09:15:56.319Z,0.21
2018-02-11T09:16:59.106Z,0.25
2018-02-11T09:18:01.417Z,0.43
2018-02-11T09:19:00.336Z,0.31
2018-02-11T09:20:02.353Z,0.31
2018-02-11T09:21:01.754Z,0.16
2018-02-11T09:22:03.420Z,0.25
2018-02-11T09:23:05.138Z,0.15
2018-02-11T09:24:04.505Z,0.16
2018-02-11T09:25:04.868Z,0.03
2018-02-11T09:26:05.970Z,0.23
2018-02-11T09:27:09.073Z,0.23
2018-02-11T09:28:08.109Z,0.22
2018-02-11T09:29:45.334Z,0.15
2018-02-11T09:30:09.983Z,0.19
2018-02-11T09:31:10.572Z,0.15
2018-02-11T09:32:12.059Z,0.21
2018-02-11T09:33:13.181Z,0.19
2018-02-11T09:34:15.043Z,0.15
2018-02-11T09:35:15.761Z,0.29
2018-02-11T09:36:16.817Z,0.22
2018-02-11T09:37:19.777Z,0.13
2018-02-11T09:38:18.421Z,0.12
2018-02-11T09:39:22.222Z,0.23
2018-02-11T09:40:22.222Z,0.31
2018-02-11T09:41:21.803Z,0.21
2018-02-11T09:42:23.444Z,0.28
2018-02-11T09:43:23.792Z,0.31
2018-02-11T09:44:25.378Z,0.31
2018-02-11T09:45:25.800Z,0.22
2018-02-11T09:46:26.131Z,0.23
2018-02-11T09:47:26.766Z,0.25
2018-02-11T09:48:28.278Z,0.25
2018-02-11T09:49:29.503Z,0.25
2018-02-11T09:50:31.104Z,0.22
2018-02-11T09:51:30.488Z,0.31
2018-02-11T09:52:31.833Z,0.31
2018-02-11T09:53:33.096Z,0.21
2018-02-11T09:54:35.997Z,0.13
2018-02-11T09:55:36.508Z,0.18
2018-02-11T09:56:36.440Z,0.15
2018-02-11T09:57:37.533Z,0.12
2018-02-11T09:58:38.522Z,0.19
2018-02-11T09:59:39.309Z,0.15
2018-02-11T10:00:40.966Z,0.15
2018-02-11T10:01:42.794Z,0.19
2018-02-11T10:02:44.041Z,0.29
2018-02-11T10:03:44.192Z,0.21
2018-02-11T10:04:45.334Z,0.19
2018-02-11T10:05:45.190Z,0.21
2018-02-11T10:06:45.423Z,0.25
2018-02-11T10:07:46.762Z,0.22
2018-02-11T10:08:48.938Z,0.21
2018-02-11T10:09:49.308Z,0.15
2018-02-11T10:10:49.847Z,0.25
2018-02-11T10:11:50.946Z,0.1
2018-02-11T10:12:51.845Z,0.19
2018-02-11T10:13:52.499Z,0.18
2018-02-11T10:14:54.799Z,0.04
2018-02-11T10:15:57.596Z,0.12
2018-02-11T10:16:58.647Z,0.09
2018-02-11T10:17:58.394Z,0.13
2018-02-11T10:18:58.866Z,0.04
2018-02-11T10:19:59.551Z,0.1
2018-02-11T10:21:00.572Z,0.04
2018-02-11T10:22:00.872Z,0.19
2018-02-11T10:23:03.145Z,0.1
2018-02-11T10:24:03.170Z,0.15
2018-02-11T10:25:05.946Z,0.13
2018-02-11T10:26:04.472Z,0.09
2018-02-11T10:27:05.622Z,0.15
2018-02-11T10:28:07.081Z,0.12
2018-02-11T10:29:09.244Z,0.25
2018-02-11T10:30:10.204Z,0.15
2018-02-11T10:31:10.581Z,0.22
2018-02-11T10:32:11.905Z,0.25
2018-02-11T10:33:14.906Z,0.15
2018-02-11T10:34:14.426Z,0.15
2018-02-11T10:35:14.453Z,0.19
2018-02-11T10:36:15.381Z,0.19
2018-02-11T10:37:19.306Z,0.25
2018-02-11T10:38:17.274Z,0.15
2018-02-11T10:39:18.919Z,0.25
2018-02-11T10:40:21.595Z,0.23
2018-02-11T10:41:20.254Z,0.25
2018-02-11T10:42:20.614Z,0.22
2018-02-11T10:43:24.041Z,0.29
2018-02-11T10:44:24.807Z,0.25
2018-02-11T10:45:26.703Z,0.21
2018-02-11T10:46:25.726Z,0.23
2018-02-11T10:47:27.016Z,0.15
2018-02-11T10:48:27.577Z,0.22
2018-02-11T10:49:29.547Z,0.21
2018-02-11T10:50:29.413Z,0.18
2018-02-11T10:51:30.555Z,0.22
2018-02-11T10:52:31.539Z,0.25
2018-02-11T10:53:33.846Z,0.25
2018-02-11T10:54:35.517Z,0.23
2018-02-11T10:55:34.539Z,0.25
2018-02-11T10:56:36.383Z,0.31
2018-02-11T10:57:37.294Z,0.23
2018-02-11T10:58:38.243Z,0.29
2018-02-11T10:59:38.072Z,0.25
2018-02-11T11:00:39.199Z,0.23
2018-02-11T11:01:40.819Z,0.29
2018-02-11T11:02:40.951Z,0.26
2018-02-11T11:03:42.932Z,0.25
2018-02-11T11:04:44.536Z,0.21
2018-02-11T11:05:45.316Z,0.26
2018-02-11T11:06:45.153Z,0.23
2018-02-11T11:07:46.577Z,0.23
2018-02-11T11:08:47.621Z,0.29
2018-02-11T11:09:49.101Z,0.22
2018-02-11T11:10:49.134Z,0.15
2018-02-11T11:11:52.259Z,0.1
2018-02-11T11:12:52.897Z,0.13
2018-02-11T11:14:34.942Z,0.03
2018-02-11T11:14:53.382Z,0.18
2018-02-11T11:15:54.295Z,0.04
2018-02-11T11:16:54.554Z,0.03
2018-02-11T11:17:56.144Z,0.1
2018-02-11T11:18:57.500Z,0.09
2018-02-11T11:20:00.672Z,0.18
2018-02-11T11:21:00.814Z,0.09
2018-02-11T11:22:00.809Z,0.12
2018-02-11T11:23:02.564Z,0.06
2018-02-11T11:24:02.168Z,0.09
2018-02-11T11:25:02.780Z,0.12
2018-02-11T11:26:05.469Z,0.03
2018-02-11T11:27:05.668Z,0.04
2018-02-11T11:28:10.585Z,0.13
2018-02-11T11:29:08.658Z,0.09
2018-02-11T11:30:07.641Z,0.06
2018-02-11T11:31:09.123Z,0.09
2018-02-11T11:32:10.306Z,0.13
2018-02-11T11:33:12.957Z,0.12
2018-02-11T11:34:15.592Z,0.13
2018-02-11T11:35:14.852Z,0.09
2018-02-11T11:36:18.189Z,0.19
2018-02-11T11:37:19.064Z,0.15
2018-02-11T11:38:19.323Z,0.13
2018-02-11T11:39:20.367Z,0.12
2018-02-11T11:40:23.872Z,0.03
2018-02-11T11:41:23.432Z,0.03
2018-02-11T11:42:23.220Z,0.12
2018-02-11T11:43:25.044Z,0.18
2018-02-11T11:44:23.108Z,0.16
2018-02-11T11:45:25.024Z,0.13
2018-02-11T11:46:24.264Z,0.21
2018-02-11T11:47:25.129Z,0.16
2018-02-11T11:48:25.925Z,0.12
2018-02-11T11:49:27.865Z,0.15
2018-02-11T11:50:28.716Z,0.19
2018-02-11T11:51:30.134Z,0.22
2018-02-11T11:52:31.655Z,0.25
2018-02-11T11:53:33.454Z,0.16
2018-02-11T11:54:32.474Z,0.15
2018-02-11T11:55:33.920Z,0.18
2018-02-11T11:56:34.637Z,0.25
2018-02-11T11:57:34.856Z,0.21
2018-02-11T11:58:36.329Z,0.16
2018-02-11T11:59:40.536Z,0.25
2018-02-11T12:00:38.400Z,0.21
2018-02-11T12:01:39.193Z,0.22
2018-02-11T12:02:42.070Z,0.22
2018-02-11T12:03:40.808Z,0.31
2018-02-11T12:04:45.138Z,0.21
2018-02-11T12:05:43.433Z,0.23
2018-02-11T12:06:45.390Z,0.19
2018-02-11T12:07:46.084Z,0.15
2018-02-11T12:08:46.508Z,0.15
2018-02-11T12:09:46.732Z,0.15
2018-02-11T12:10:48.585Z,0.23
2018-02-11T12:11:49.440Z,0.15
2018-02-11T12:12:51.354Z,0.22
2018-02-11T12:13:52.308Z,0.16
2018-02-11T12:14:52.680Z,0.16
2018-02-11T12:15:53.332Z,0.19
2018-02-11T12:16:54.120Z,0.23
2018-02-11T12:17:54.701Z,0.15
2018-02-11T12:18:55.731Z,0.21
2018-02-11T12:19:57.962Z,0.15
2018-02-11T12:20:58.047Z,0.21
2018-02-11T12:21:59.145Z,0.15
2018-02-11T12:23:00.800Z,0.19
2018-02-11T12:24:01.103Z,0.21
2018-02-11T12:25:02.443Z,0.21
2018-02-11T12:26:03.875Z,0.16
2018-02-11T12:27:05.253Z,0.18
2018-02-11T12:28:05.830Z,0.25
2018-02-11T12:29:06.595Z,0.23
2018-02-11T12:30:07.316Z,0.25
2018-02-11T12:31:08.528Z,0.21
2018-02-11T12:32:09.229Z,0.22
2018-02-11T12:39:15.000Z,0.15
2018-02-11T12:46:28.816Z,0.15
2018-02-11T12:53:37.622Z,0.13
2018-02-11T12:56:45.382Z,0.15
2018-02-11T12:58:20.310Z,0.18
2018-02-11T13:06:02.198Z,0.09
2018-02-11T13:08:48.455Z,0.19
2018-02-11T13:10:25.142Z,0.19
2018-02-11T13:17:34.694Z,0.12
2018-02-11T13:20:11.702Z,0.16
2018-02-11T13:21:31.724Z,0.23
2018-02-11T13:29:00.621Z,0.22
2018-02-11T13:32:08.732Z,0.15
2018-02-11T13:38:05.175Z,0.29
2018-02-11T13:39:27.926Z,0.15
2018-02-11T13:42:00.291Z,0.23
2018-02-11T13:46:29.206Z,0.26
2018-02-11T13:48:46.118Z,0.23
2018-02-11T13:50:23.750Z,0.23
2018-02-11T13:52:34.022Z,0.21
2018-02-11T13:54:27.157Z,0.22
2018-02-11T13:54:39.686Z,0.12
2018-02-11T13:55:33.573Z,0.34
2018-02-11T13:56:34.215Z,0.19
2018-02-11T13:57:36.600Z,0.21
2018-02-11T13:58:36.202Z,0.13
2018-02-11T13:59:40.233Z,0.18
2018-02-11T14:00:38.261Z,0.15
2018-02-11T14:01:38.917Z,0.19
2018-02-11T14:02:40.081Z,0.15
2018-02-11T14:03:41.794Z,0.15
2018-02-11T14:04:43.359Z,0.07
2018-02-11T14:05:43.268Z,0.03
2018-02-11T14:06:43.833Z,0.1
2018-02-11T14:07:44.572Z,0.19
2018-02-11T14:08:46.177Z,0.09
2018-02-11T14:09:47.208Z,0.15
2018-02-11T14:10:48.702Z,0.09
2018-02-11T14:11:50.110Z,0.09
2018-02-11T14:12:50.965Z,0.12
2018-02-11T14:13:51.260Z,0.19
2018-02-11T14:14:53.258Z,0.15
2018-02-11T14:15:53.221Z,0.15
2018-02-11T14:16:53.925Z,0.15
2018-02-11T14:17:55.279Z,0.07
2018-02-11T14:18:56.007Z,0.03
2018-02-11T14:19:59.108Z,0.15
2018-02-11T14:21:00.627Z,0.19
2018-02-11T14:21:58.545Z,0.15
2018-02-11T14:23:00.217Z,0.21
2018-02-11T14:24:02.774Z,0.31
2018-02-11T14:25:02.003Z,0.22
2018-02-11T14:26:04.004Z,0.25
2018-02-11T14:27:03.390Z,0.31
2018-02-11T14:28:04.757Z,0.23
2018-02-11T14:29:07.693Z,0.22
2018-02-11T14:30:06.408Z,0.21
2018-02-11T14:31:08.690Z,0.22
2018-02-11T14:32:11.478Z,0.23
2018-02-11T14:33:10.258Z,0.22